関東・中部TAF電文


百里(RJAH)
7/13 20h
TAF RJAH 131105Z 1312/1418 16006KT 9999 FEW020 BECMG 1312/1314
07004KT TEMPO 1317/1321 4000 -SHRA BR FEW005 BKN008 TEMPO
1321/1403 3000 SHRA BR FEW003 BKN005=

成田(RJAA)
7/13 20h
TAF RJAA 131105Z 1312/1418 14006KT 9999 -SHRA FEW015 BKN030 TEMPO
1315/1318 4000 -SHRA BR FEW005 BKN008 TEMPO 1318/1403 3000
SHRA BR FEW003 BKN005 BECMG 1403/1406 02008KT=

羽田(RJTT)
7/13 20h
TAF RJTT 131110Z 1312/1418 18008KT 9999 -SHRA FEW010 BKN030 TEMPO
1316/1400 3000 SHRA BR FEW005 BKN008 BECMG 1400/1403
36006KT=

新潟(RJSN)
7/13 20h
TAF RJSN 131105Z 1312/1418 04004KT 9999 FEW030=

富山(RJNT)
7/13 20h
TAF RJNT 131106Z 1312/1418 22004KT 9999 FEW020 SCT060 BECMG
1400/1403 36005KT TEMPO 1400/1409 3000 SHRA BR FEW003
BKN008 BECMG 1412/1415 22004KT=

小松(RJNK)
7/13 20h
TAF RJNK 131106Z 1312/1418 14004KT 9999 FEW020 SCT060 TEMPO
1400/1406 3000 SHRA BR FEW003 BKN008=

静岡(RJNS)
7/13 20h
TAF RJNS 131105Z 1312/1418 04006KT 8000 -SHRA FEW008 BKN015 TEMPO
1312/1315 3000 SHRA BR FEW003 BKN005 BECMG 1315/1317
28006KT TEMPO 1315/1318 4000 -SHRA BR FEW005 BKN008=

中部国際(RJGG)
7/13 22h
TAF AMD RJGG 131321Z 1313/1418 12008KT 9999 FEW015 BKN030 TEMPO
1313/1316 3000 -SHRA BR FEW003 BKN005 BECMG 1315/1317
06005KT BECMG 1400/1403 12004KT TEMPO 1400/1409 4000 -SHRA
BR=
Copyright(c) 2014 International Meteorological & Oceanographic Consultants Co,.Ltd. All Rights Reserved. Design by http://f-tpl.com